Terminal Aerodrome Forecast
Issued by NWS Louisville, KY

Home | Current Version | Previous Version | Text Only | Print | Product List | Glossary On
Versions: 1 2 3 4 5 6 7 8 9 10 11 12 13 14 15
972
FTUS43 KLMK 182334
TAFLEX
TAF
KLEX 182334Z 1900/1924 VRB06KT P6SM BKN015
     FM190400 VRB03KT P6SM SCT020 OVC150
     FM191900 12007KT P6SM VCSH BKN080
     FM192100 12008KT 5SM -SHRA OVC025=

USA.gov is the U.S. government's official web portal to all federal, state and local government web resources and services.